Time;durP1;ratioP1;P1;durP2;ratioP2;P2;SDS_P1;SDS_P2;PMS_P1;PMS_P2;Temp;Humidity;BMP_temperature;BMP_pressure;BME280_temperature;BME280_humidity;BME280_pressure;Samples;Min_cycle;Max_cycle;Signal;HPM_P1;HPM_P2
2023/02/07 16:40:37;;;;;;;16.67;9.68;;;0.00;99.90;;;;;;5066079;28;20491;-67
2023/02/07 16:43:05;;;;;;;15.65;8.40;;;-0.10;99.90;;;;;;5054943;28;20022;-66
2023/02/07 16:45:31;;;;;;;15.88;9.65;;;0.00;99.90;;;;;;5051677;28;20035;-66
2023/02/07 16:47:58;;;;;;;15.45;8.63;;;0.00;99.90;;;;;;5083745;28;20031;-68
2023/02/07 16:50:26;;;;;;;19.23;10.35;;;0.00;99.90;;;;;;5070287;28;20017;-67
2023/02/07 16:52:55;;;;;;;14.38;7.82;;;0.10;99.90;;;;;;5066730;28;20025;-64
2023/02/07 16:55:22;;;;;;;13.00;7.97;;;0.10;99.90;;;;;;5066668;28;20020;-65
2023/02/07 16:57:48;;;;;;;14.45;8.45;;;0.20;99.90;;;;;;5066744;28;20469;-70
2023/02/07 17:00:18;;;;;;;17.40;8.55;;;0.20;99.90;;;;;;5066846;28;20086;-67
2023/02/07 17:02:47;;;;;;;14.80;8.18;;;0.20;99.90;;;;;;5066149;28;20017;-68
2023/02/07 17:05:13;;;;;;;14.70;7.75;;;0.20;99.90;;;;;;5068128;28;20104;-69
2023/02/07 17:07:38;;;;;;;12.55;6.50;;;0.20;99.90;;;;;;5065340;28;20031;-69
2023/02/07 17:10:28;;;;;;;12.50;7.00;;;0.20;99.90;;;;;;5066165;28;20025;-69
2023/02/07 17:12:54;;;;;;;14.85;8.32;;;0.20;99.90;;;;;;5067105;28;20032;-68
2023/02/07 17:15:20;;;;;;;14.38;7.30;;;0.20;99.90;;;;;;5059681;28;20025;-65
2023/02/07 17:17:46;;;;;;;13.68;6.80;;;0.30;99.90;;;;;;5045719;28;20566;-68
2023/02/07 17:20:30;;;;;;;18.30;8.07;;;0.30;99.90;;;;;;5048012;28;20132;-69
2023/02/07 17:22:56;;;;;;;12.88;7.15;;;0.30;99.90;;;;;;5058721;28;20028;-68
2023/02/07 17:25:24;;;;;;;15.48;7.40;;;0.30;99.90;;;;;;5067261;28;20119;-69
2023/02/07 17:27:50;;;;;;;13.70;7.85;;;0.30;99.90;;;;;;5067139;28;20021;-69
2023/02/07 17:30:21;;;;;;;13.38;7.32;;;0.30;99.90;;;;;;5068067;28;20020;-69
2023/02/07 17:32:50;;;;;;;14.57;7.88;;;0.20;99.90;;;;;;5067678;28;20017;-70
2023/02/07 17:35:16;;;;;;;15.60;7.82;;;0.20;99.90;;;;;;5067948;28;20033;-69
2023/02/07 17:37:42;;;;;;;14.90;8.02;;;0.20;99.90;;;;;;5066771;28;20489;-70
2023/02/07 17:40:22;;;;;;;12.60;6.82;;;0.10;99.90;;;;;;5066455;28;20045;-69
2023/02/07 17:42:49;;;;;;;12.80;7.30;;;0.10;99.90;;;;;;5065546;28;20033;-70
2023/02/07 17:45:14;;;;;;;12.20;7.07;;;0.00;99.90;;;;;;5065499;28;20024;-65
2023/02/07 17:47:40;;;;;;;11.05;6.57;;;-0.10;99.90;;;;;;5065614;28;20370;-72
2023/02/07 17:50:07;;;;;;;16.33;7.80;;;-0.10;99.90;;;;;;5064557;28;20033;-70
2023/02/07 17:52:33;;;;;;;14.05;7.50;;;-0.20;99.90;;;;;;5052027;28;20191;-76
2023/02/07 17:54:59;;;;;;;12.40;7.53;;;-0.20;99.90;;;;;;5054410;28;20666;-68
2023/02/07 17:57:24;;;;;;;15.55;8.15;;;-0.20;99.90;;;;;;5054024;28;20438;-68
2023/02/07 17:59:50;;;;;;;17.35;8.60;;;-0.20;99.90;;;;;;5052523;28;20057;-68
2023/02/07 18:02:15;;;;;;;15.52;8.30;;;-0.20;99.90;;;;;;5054193;28;20029;-67
2023/02/07 18:04:41;;;;;;;16.80;8.75;;;-0.20;99.90;;;;;;5053029;28;20029;-69
2023/02/07 18:07:08;;;;;;;17.27;9.13;;;-0.20;99.90;;;;;;5053279;28;20021;-67
2023/02/07 18:09:33;;;;;;;15.10;9.18;;;-0.30;99.90;;;;;;5053468;28;20052;-64
2023/02/07 18:12:02;;;;;;;17.40;9.27;;;-0.30;99.90;;;;;;5053462;28;20052;-67
2023/02/07 18:14:29;;;;;;;18.95;9.65;;;-0.30;99.90;;;;;;5053051;28;20039;-69
2023/02/07 18:16:55;;;;;;;20.30;10.18;;;-0.30;99.90;;;;;;5054092;28;20091;-67
2023/02/07 18:19:20;;;;;;;20.88;11.98;;;-0.40;99.90;;;;;;5053857;28;20037;-66
2023/02/07 18:21:46;;;;;;;18.60;10.10;;;-0.40;99.90;;;;;;5052823;28;20074;-65
2023/02/07 18:24:12;;;;;;;23.30;11.05;;;-0.50;99.90;;;;;;5048973;28;20029;-67
2023/02/07 18:26:37;;;;;;;19.58;10.43;;;-0.60;99.90;;;;;;5039266;28;20384;-68
2023/02/07 18:29:03;;;;;;;17.83;9.90;;;-0.60;99.90;;;;;;5053071;28;20021;-67
2023/02/07 18:31:29;;;;;;;24.45;12.05;;;-0.70;99.90;;;;;;5053875;28;20021;-63
2023/02/07 18:33:54;;;;;;;21.00;11.23;;;-0.70;99.90;;;;;;5053460;28;20029;-71
2023/02/07 18:36:22;;;;;;;25.77;10.85;;;-0.80;99.90;;;;;;5052312;28;20033;-67
2023/02/07 18:38:48;;;;;;;21.38;11.48;;;-0.80;99.90;;;;;;5052671;28;20135;-65
2023/02/07 18:41:22;;;;;;;21.98;11.57;;;-0.80;99.90;;;;;;5051990;28;20132;-65
2023/02/07 18:43:48;;;;;;;21.83;11.77;;;-0.90;99.90;;;;;;5052728;28;20108;-65
2023/02/07 18:46:19;;;;;;;24.52;13.30;;;-0.90;99.90;;;;;;5053285;28;20029;-62
2023/02/07 18:48:45;;;;;;;25.65;12.93;;;-0.90;99.90;;;;;;5050741;28;20029;-69
2023/02/07 18:51:13;;;;;;;20.52;11.57;;;-0.90;99.90;;;;;;5052698;28;20032;-66
2023/02/07 18:53:39;;;;;;;20.83;12.50;;;-0.90;99.90;;;;;;5052706;28;20025;-68
2023/02/07 18:56:25;;;;;;;20.95;11.57;;;-0.90;99.90;;;;;;5052783;28;20465;-67
2023/02/07 18:58:51;;;;;;;22.20;12.20;;;-1.00;99.90;;;;;;5052543;28;20112;-68
2023/02/07 19:01:19;;;;;;;19.52;11.13;;;-1.00;99.90;;;;;;5052235;28;20123;-63
2023/02/07 19:03:57;;;;;;;21.90;11.50;;;-1.00;99.90;;;;;;5051459;28;20064;-71
2023/02/07 19:06:24;;;;;;;19.63;10.93;;;-1.10;99.90;;;;;;5052949;28;20064;-64
2023/02/07 19:08:50;;;;;;;24.90;12.30;;;-1.10;99.90;;;;;;5051928;28;20025;-63
2023/02/07 19:11:16;;;;;;;23.33;11.63;;;-1.10;99.90;;;;;;5052533;28;20099;-64
2023/02/07 19:13:42;;;;;;;21.83;11.90;;;-1.10;99.90;;;;;;5051501;28;20496;-69
2023/02/07 19:16:12;;;;;;;22.80;12.38;;;-1.10;99.90;;;;;;5052807;28;20359;-65
2023/02/07 19:18:38;;;;;;;18.13;10.80;;;-1.10;99.90;;;;;;5053074;28;20060;-66
2023/02/07 19:21:06;;;;;;;18.13;10.70;;;-1.10;99.90;;;;;;5051768;28;20068;-69
2023/02/07 19:23:32;;;;;;;21.80;10.60;;;-1.10;99.90;;;;;;5052128;28;20028;-71
2023/02/07 19:25:58;;;;;;;20.52;11.00;;;-1.10;99.90;;;;;;5052827;28;20086;-68
2023/02/07 19:28:23;;;;;;;16.75;9.80;;;-1.00;99.90;;;;;;5053321;28;20021;-68
2023/02/07 19:30:49;;;;;;;21.42;9.93;;;-1.10;99.90;;;;;;5052006;28;20354;-71
2023/02/07 19:33:15;;;;;;;19.38;10.52;;;-1.10;99.90;;;;;;5052684;28;20017;-67
2023/02/07 19:35:40;;;;;;;20.52;11.75;;;-1.10;99.90;;;;;;5050984;28;20025;-77
2023/02/07 19:38:06;;;;;;;21.33;11.43;;;-1.10;99.90;;;;;;5051614;28;20035;-74
2023/02/07 19:40:32;;;;;;;19.63;11.07;;;-1.10;99.90;;;;;;5051840;28;20052;-66
2023/02/07 19:42:57;;;;;;;18.20;11.25;;;-1.20;99.90;;;;;;5052443;28;20111;-69
2023/02/07 19:45:25;;;;;;;23.38;12.57;;;-1.20;99.90;;;;;;5051047;28;20078;-69
2023/02/07 19:47:51;;;;;;;23.98;12.40;;;-1.20;99.90;;;;;;5045560;28;20048;-69
2023/02/07 19:50:17;;;;;;;22.63;12.10;;;-1.30;99.90;;;;;;5039107;28;20025;-72
2023/02/07 19:52:42;;;;;;;26.98;12.10;;;-1.30;99.90;;;;;;5050655;28;20095;-68
2023/02/07 19:55:08;;;;;;;26.05;11.88;;;-1.30;99.90;;;;;;5052565;28;20031;-77
2023/02/07 19:57:34;;;;;;;22.48;12.20;;;-1.40;99.90;;;;;;5051496;28;20021;-67
